Time;durP1;ratioP1;P1;durP2;ratioP2;P2;SDS_P1;SDS_P2;PMS_P1;PMS_P2;Temp;Humidity;BMP_temperature;BMP_pressure;BME280_temperature;BME280_humidity;BME280_pressure;Samples;Min_cycle;Max_cycle;Signal;HPM_P1;HPM_P2
2020/12/13 00:02:12;;;;;;;36.85;23.00;;;12.80;99.90;;;;;;5073005;28;20198;-78
2020/12/13 00:04:38;;;;;;;41.90;24.83;;;12.80;99.90;;;;;;5073212;28;20197;-78
2020/12/13 00:07:04;;;;;;;49.03;26.05;;;12.90;99.90;;;;;;5073012;28;20729;-77
2020/12/13 00:09:30;;;;;;;40.80;25.58;;;12.80;99.90;;;;;;5073076;28;20190;-77
2020/12/13 00:11:57;;;;;;;42.13;24.00;;;12.80;99.90;;;;;;5072853;28;20228;-77
2020/12/13 00:14:23;;;;;;;42.17;24.10;;;12.80;99.90;;;;;;5073246;28;20202;-77
2020/12/13 00:16:51;;;;;;;43.70;22.90;;;12.80;99.90;;;;;;5072904;28;20194;-77
2020/12/13 00:19:18;;;;;;;49.17;25.25;;;12.80;99.90;;;;;;5073011;28;20275;-77
2020/12/13 00:21:49;;;;;;;40.55;24.40;;;12.80;99.90;;;;;;5072837;28;20201;-76
2020/12/13 00:24:15;;;;;;;36.15;22.75;;;12.70;99.90;;;;;;5073085;28;20198;-77
2020/12/13 00:26:41;;;;;;;40.30;23.50;;;12.80;99.90;;;;;;5072896;28;20656;-78
2020/12/13 00:29:08;;;;;;;39.92;24.05;;;12.80;99.90;;;;;;5073078;28;20215;-77
2020/12/13 00:31:34;;;;;;;44.35;23.85;;;12.70;99.90;;;;;;5072703;28;20222;-77
2020/12/13 00:34:00;;;;;;;40.15;23.10;;;12.80;99.90;;;;;;5072834;28;20233;-77
2020/12/13 00:36:27;;;;;;;45.67;23.23;;;12.70;99.90;;;;;;5072691;28;20194;-77
2020/12/13 00:38:54;;;;;;;40.90;21.75;;;12.70;99.90;;;;;;5072900;28;20201;-77
2020/12/13 00:41:20;;;;;;;48.38;25.45;;;12.70;99.90;;;;;;5072765;28;20198;-77
2020/12/13 00:43:46;;;;;;;41.88;25.02;;;12.70;99.90;;;;;;5072580;28;20194;-78
2020/12/13 00:46:12;;;;;;;37.70;23.80;;;12.70;99.90;;;;;;5072729;28;20198;-77
2020/12/13 00:48:39;;;;;;;40.15;23.65;;;12.70;99.90;;;;;;5072754;28;20190;-77
2020/12/13 00:51:05;;;;;;;47.80;24.98;;;12.70;99.90;;;;;;5072511;28;20233;-77
2020/12/13 00:53:33;;;;;;;42.55;23.52;;;12.70;99.90;;;;;;5072402;28;20230;-77
2020/12/13 00:55:59;;;;;;;39.55;23.70;;;12.60;99.90;;;;;;5072550;28;20199;-77
2020/12/13 00:58:25;;;;;;;36.47;22.30;;;12.70;99.90;;;;;;5072484;28;20241;-77
2020/12/13 01:00:51;;;;;;;37.30;23.23;;;12.70;99.90;;;;;;5072613;28;20222;-77
2020/12/13 01:03:18;;;;;;;41.25;23.38;;;12.70;99.90;;;;;;5072500;28;20553;-77
2020/12/13 01:05:44;;;;;;;38.90;25.35;;;12.70;99.90;;;;;;5073068;28;20194;-77
2020/12/13 01:08:10;;;;;;;41.78;22.75;;;12.70;99.90;;;;;;5076241;28;20190;-77
2020/12/13 01:10:37;;;;;;;41.88;22.80;;;12.70;99.90;;;;;;5076093;28;20217;-77
2020/12/13 01:13:03;;;;;;;41.17;23.40;;;12.70;99.90;;;;;;5076156;28;20233;-77
2020/12/13 01:15:30;;;;;;;38.08;23.00;;;12.70;99.90;;;;;;5076093;28;20194;-77
2020/12/13 01:17:56;;;;;;;39.78;24.90;;;12.70;99.90;;;;;;5075954;28;20202;-77
2020/12/13 01:20:23;;;;;;;41.67;24.27;;;12.70;99.90;;;;;;5075846;28;20205;-77
2020/12/13 01:22:49;;;;;;;41.05;22.75;;;12.70;99.90;;;;;;5075863;28;20206;-78
2020/12/13 01:25:15;;;;;;;45.97;23.35;;;12.70;99.90;;;;;;5075918;28;20190;-77
2020/12/13 01:27:42;;;;;;;40.78;24.55;;;12.70;99.90;;;;;;5075799;28;20225;-77
2020/12/13 01:30:09;;;;;;;44.67;22.50;;;12.70;99.90;;;;;;5075646;28;20201;-77
2020/12/13 01:32:37;;;;;;;41.28;22.50;;;12.80;99.90;;;;;;5075561;28;20221;-77
2020/12/13 01:35:04;;;;;;;47.20;24.55;;;12.80;99.90;;;;;;5075689;28;20198;-77
2020/12/13 01:37:31;;;;;;;44.05;24.45;;;12.80;99.90;;;;;;5075515;28;20198;-77
2020/12/13 01:39:57;;;;;;;44.15;26.33;;;12.80;99.90;;;;;;5075587;28;20200;-77
2020/12/13 01:42:23;;;;;;;44.20;25.00;;;12.80;99.90;;;;;;5075425;28;20194;-77
2020/12/13 01:44:50;;;;;;;42.75;25.20;;;12.80;99.90;;;;;;5075332;28;20194;-77
2020/12/13 01:47:18;;;;;;;43.50;24.40;;;12.80;99.90;;;;;;5075367;28;20300;-77
2020/12/13 01:49:47;;;;;;;41.65;24.23;;;12.80;99.90;;;;;;5075426;28;20221;-77
2020/12/13 01:55:04;;;;;;;38.33;22.83;;;12.80;99.90;;;;;;5075250;28;20260;-77
2020/12/13 01:57:34;;;;;;;40.85;24.20;;;12.80;99.90;;;;;;5075289;28;20201;-77
2020/12/13 02:00:06;;;;;;;41.08;23.77;;;12.80;99.90;;;;;;5075138;28;20206;-78
2020/12/13 02:02:36;;;;;;;45.30;23.23;;;12.80;99.90;;;;;;5075230;28;20194;-77
2020/12/13 02:05:04;;;;;;;42.05;24.00;;;12.80;99.90;;;;;;5075142;28;20198;-77
2020/12/13 02:07:31;;;;;;;45.08;24.58;;;12.80;99.90;;;;;;5075232;28;20194;-77
2020/12/13 02:09:58;;;;;;;37.67;24.35;;;12.80;99.90;;;;;;5075059;28;20560;-77
2020/12/13 02:12:25;;;;;;;39.42;24.20;;;12.80;99.90;;;;;;5074404;28;20593;-77
2020/12/13 02:14:51;;;;;;;39.33;21.88;;;12.80;99.90;;;;;;5074817;28;21232;-77
2020/12/13 02:17:20;;;;;;;47.80;24.77;;;12.80;99.90;;;;;;5074709;28;20197;-76
2020/12/13 02:19:47;;;;;;;49.40;23.90;;;12.80;99.90;;;;;;5074883;28;20243;-77
2020/12/13 02:22:14;;;;;;;48.20;24.42;;;12.80;99.90;;;;;;5074740;28;20201;-77
2020/12/13 02:24:41;;;;;;;33.40;22.50;;;12.80;99.90;;;;;;5074359;28;20221;-77
2020/12/13 02:27:08;;;;;;;38.00;21.83;;;12.80;99.90;;;;;;5074664;28;20206;-77
2020/12/13 02:29:35;;;;;;;39.40;22.58;;;12.90;99.90;;;;;;5074730;28;20692;-76
2020/12/13 02:32:02;;;;;;;40.80;24.75;;;12.90;99.90;;;;;;5074474;28;20245;-77
2020/12/13 02:34:28;;;;;;;43.28;24.58;;;12.90;99.90;;;;;;5074627;28;20204;-77
2020/12/13 02:36:55;;;;;;;44.30;25.02;;;12.80;99.90;;;;;;5074391;28;20541;-77
2020/12/13 02:39:22;;;;;;;37.97;22.70;;;12.80;99.90;;;;;;5074590;28;20205;-77
2020/12/13 02:41:59;;;;;;;44.67;22.90;;;12.80;99.90;;;;;;5074307;28;20581;-77
2020/12/13 02:44:26;;;;;;;38.55;22.50;;;12.80;99.90;;;;;;5074378;28;20198;-77
2020/12/13 02:46:52;;;;;;;42.83;23.60;;;12.80;99.90;;;;;;5074372;28;20202;-77
2020/12/13 02:49:19;;;;;;;42.35;23.60;;;12.80;99.90;;;;;;5074289;28;20611;-77
2020/12/13 02:51:45;;;;;;;43.28;25.27;;;12.80;99.90;;;;;;5074170;28;20218;-76
2020/12/13 02:54:11;;;;;;;37.85;23.15;;;12.80;99.90;;;;;;5073938;28;20233;-77
2020/12/13 02:56:41;;;;;;;38.67;22.90;;;12.80;99.90;;;;;;5074057;28;20539;-77
2020/12/13 02:59:08;;;;;;;35.67;22.08;;;12.80;99.90;;;;;;5073850;28;20214;-77
2020/12/13 03:01:34;;;;;;;43.92;24.40;;;12.80;99.90;;;;;;5073940;28;20194;-77
2020/12/13 03:04:00;;;;;;;36.40;22.27;;;12.80;99.90;;;;;;5074104;28;20641;-77
2020/12/13 03:06:26;;;;;;;37.92;21.40;;;12.80;99.90;;;;;;5073755;28;20202;-77
2020/12/13 03:08:53;;;;;;;42.85;22.27;;;12.80;99.90;;;;;;5073915;28;20201;-76
2020/12/13 03:11:20;;;;;;;38.58;23.35;;;12.80;99.90;;;;;;5073831;28;20224;-77
2020/12/13 03:13:48;;;;;;;40.15;23.10;;;12.80;99.90;;;;;;5073893;28;20194;-77
2020/12/13 03:16:15;;;;;;;37.28;22.08;;;12.80;99.90;;;;;;5073732;28;20191;-76
2020/12/13 03:18:41;;;;;;;39.72;23.42;;;12.80;99.90;;;;;;5073671;28;20202;-77
2020/12/13 03:21:08;;;;;;;46.53;23.98;;;12.80;99.90;;;;;;5073698;28;20194;-77
2020/12/13 03:23:34;;;;;;;42.97;24.30;;;12.80;99.90;;;;;;5073142;28;20191;-77
2020/12/13 03:26:00;;;;;;;39.33;24.67;;;12.70;99.90;;;;;;5073647;28;20204;-77
2020/12/13 03:28:27;;;;;;;40.50;24.00;;;12.70;99.90;;;;;;5072947;28;20564;-77
2020/12/13 03:30:54;;;;;;;46.33;24.55;;;12.70;99.90;;;;;;5073522;28;20194;-77
2020/12/13 03:33:20;;;;;;;46.20;24.67;;;12.70;99.90;;;;;;5073420;28;20230;-77
2020/12/13 03:35:47;;;;;;;41.92;24.00;;;12.70;99.90;;;;;;5073508;28;20190;-77
2020/12/13 03:38:13;;;;;;;46.33;25.42;;;12.70;99.90;;;;;;5073384;28;20201;-77
2020/12/13 03:40:40;;;;;;;38.45;23.63;;;12.70;99.90;;;;;;5073407;28;20206;-77
2020/12/13 03:43:06;;;;;;;47.65;25.35;;;12.70;99.90;;;;;;5073319;28;20198;-77
2020/12/13 03:45:33;;;;;;;45.50;23.70;;;12.70;99.90;;;;;;5073369;28;20190;-76
2020/12/13 03:48:00;;;;;;;47.80;24.55;;;12.70;99.90;;;;;;5073274;28;20200;-77
2020/12/13 03:50:38;;;;;;;47.72;27.80;;;12.70;99.90;;;;;;5073267;28;20190;-77
2020/12/13 03:53:05;;;;;;;48.92;26.33;;;12.70;99.90;;;;;;5073310;28;20574;-77
2020/12/13 03:55:31;;;;;;;44.72;26.00;;;12.70;99.90;;;;;;5073168;28;20222;-77
2020/12/13 03:57:57;;;;;;;48.08;28.75;;;12.60;99.90;;;;;;5073135;28;20222;-77
2020/12/13 04:00:26;;;;;;;46.88;27.10;;;12.60;99.90;;;;;;5073207;28;20657;-78
2020/12/13 04:02:53;;;;;;;49.15;28.83;;;12.60;99.90;;;;;;5073075;28;20282;-77
2020/12/13 04:05:21;;;;;;;54.08;27.33;;;12.60;99.90;;;;;;5073074;28;20197;-78
2020/12/13 04:07:47;;;;;;;58.45;27.27;;;12.60;99.90;;;;;;5073304;28;20194;-77
2020/12/13 04:10:14;;;;;;;49.97;27.85;;;12.60;99.90;;;;;;5072952;28;20217;-78
2020/12/13 04:12:40;;;;;;;46.28;26.98;;;12.60;99.90;;;;;;5073081;28;20225;-77
2020/12/13 04:15:06;;;;;;;52.15;28.27;;;12.70;99.90;;;;;;5073078;28;20194;-77
2020/12/13 04:17:33;;;;;;;50.60;26.92;;;12.70;99.90;;;;;;5073074;28;20216;-77
2020/12/13 04:19:59;;;;;;;48.05;25.83;;;12.70;99.90;;;;;;5073008;28;20194;-76
2020/12/13 04:22:26;;;;;;;48.03;25.33;;;12.70;99.90;;;;;;5072984;28;20201;-77
2020/12/13 04:24:52;;;;;;;55.67;27.08;;;12.70;99.90;;;;;;5072903;28;20190;-77
2020/12/13 04:27:18;;;;;;;42.97;26.00;;;12.70;99.90;;;;;;5072151;28;20194;-77
2020/12/13 04:29:45;;;;;;;47.15;26.55;;;12.70;99.90;;;;;;5072872;28;20195;-77
2020/12/13 04:32:11;;;;;;;48.53;27.45;;;12.70;99.90;;;;;;5072897;28;20226;-77
2020/12/13 04:34:37;;;;;;;44.67;24.52;;;12.70;99.90;;;;;;5072807;28;20206;-77
2020/12/13 04:37:05;;;;;;;48.88;28.27;;;12.70;99.90;;;;;;5072950;28;20656;-77
2020/12/13 04:39:34;;;;;;;46.15;28.60;;;12.70;99.90;;;;;;5072840;28;20551;-76
2020/12/13 04:42:00;;;;;;;48.50;26.25;;;12.70;99.90;;;;;;5074924;28;20195;-77
2020/12/13 04:44:28;;;;;;;42.88;26.55;;;12.70;99.90;;;;;;5076515;28;20205;-77
2020/12/13 04:46:55;;;;;;;45.67;26.33;;;12.70;99.90;;;;;;5076413;28;20205;-77
2020/12/13 04:49:23;;;;;;;44.33;26.35;;;12.80;99.90;;;;;;5076571;28;20190;-77
2020/12/13 04:51:51;;;;;;;50.85;26.55;;;12.80;99.90;;;;;;5076352;28;20244;-77
2020/12/13 04:54:21;;;;;;;40.33;25.90;;;12.80;99.90;;;;;;5076183;28;20562;-77
2020/12/13 04:56:50;;;;;;;43.75;25.98;;;12.80;99.90;;;;;;5076347;28;20209;-77
2020/12/13 04:59:17;;;;;;;41.88;23.85;;;12.80;99.90;;;;;;5076420;28;20214;-76
2020/12/13 05:01:44;;;;;;;41.22;23.55;;;12.80;99.90;;;;;;5076449;28;20199;-77
2020/12/13 05:04:10;;;;;;;47.53;26.73;;;12.70;99.90;;;;;;5076119;28;20198;-76
2020/12/13 05:06:37;;;;;;;40.13;25.27;;;12.70;99.90;;;;;;5076161;28;20198;-77
2020/12/13 05:09:04;;;;;;;37.33;24.27;;;12.70;99.90;;;;;;5076196;28;20202;-77
2020/12/13 05:11:31;;;;;;;43.28;27.05;;;12.70;99.90;;;;;;5076067;28;20744;-77
2020/12/13 05:13:58;;;;;;;44.72;25.00;;;12.70;99.90;;;;;;5076195;28;20533;-77
2020/12/13 05:16:24;;;;;;;49.10;25.27;;;12.70;99.90;;;;;;5075935;28;20198;-77
2020/12/13 05:18:52;;;;;;;37.85;22.17;;;12.70;99.90;;;;;;5076226;28;20190;-77
2020/12/13 05:21:21;;;;;;;40.03;24.08;;;12.70;99.90;;;;;;5075877;28;20198;-77
2020/12/13 05:23:49;;;;;;;38.28;24.02;;;12.80;99.90;;;;;;5075858;28;20198;-78
2020/12/13 05:26:15;;;;;;;43.88;25.17;;;12.80;99.90;;;;;;5075860;28;20614;-77
2020/12/13 05:28:47;;;;;;;42.25;26.30;;;12.80;99.90;;;;;;5075782;28;20705;-78
2020/12/13 05:31:15;;;;;;;41.50;23.92;;;12.70;99.90;;;;;;5075871;28;20194;-77
2020/12/13 05:33:45;;;;;;;34.30;23.40;;;12.70;99.90;;;;;;5075671;28;20688;-78
2020/12/13 05:36:12;;;;;;;48.28;25.35;;;12.80;99.90;;;;;;5075522;28;20252;-76
2020/12/13 05:38:40;;;;;;;42.58;25.45;;;12.80;99.90;;;;;;5075691;28;20571;-77
2020/12/13 05:41:08;;;;;;;39.05;23.35;;;12.80;99.90;;;;;;5075683;28;20543;-77
2020/12/13 05:43:38;;;;;;;43.72;26.77;;;12.80;99.90;;;;;;5075562;28;20202;-76
2020/12/13 05:46:35;;;;;;;51.42;24.33;;;12.80;99.90;;;;;;5075513;28;20233;-77
2020/12/13 05:51:45;;;;;;;42.65;25.88;;;12.70;99.90;;;;;;5074656;28;20225;-77
2020/12/13 05:54:20;;;;;;;40.97;24.70;;;12.70;99.90;;;;;;5074476;28;20237;-77
2020/12/13 05:56:51;;;;;;;44.38;28.15;;;12.70;99.90;;;;;;5075328;28;20204;-77
2020/12/13 05:59:17;;;;;;;42.28;24.15;;;12.70;99.90;;;;;;5075246;28;20544;-77
2020/12/13 06:01:48;;;;;;;38.97;24.05;;;12.70;99.90;;;;;;5075198;28;20193;-78
2020/12/13 06:04:16;;;;;;;36.67;24.20;;;12.70;99.90;;;;;;5075309;28;20260;-77
2020/12/13 06:06:45;;;;;;;41.20;24.98;;;12.70;99.90;;;;;;5075172;28;20198;-77
2020/12/13 06:09:12;;;;;;;41.67;26.23;;;12.70;99.90;;;;;;5075148;28;20195;-78
2020/12/13 06:11:41;;;;;;;45.25;26.02;;;12.70;99.90;;;;;;5074968;28;20198;-77
2020/12/13 06:14:13;;;;;;;41.47;26.23;;;12.70;99.90;;;;;;5075039;28;20194;-77
2020/12/13 06:16:39;;;;;;;41.25;25.10;;;12.70;99.90;;;;;;5074911;28;20657;-77
2020/12/13 06:19:07;;;;;;;43.17;24.65;;;12.70;99.90;;;;;;5075029;28;20204;-77
2020/12/13 06:21:35;;;;;;;45.90;25.30;;;12.60;99.90;;;;;;5074861;28;20190;-77
2020/12/13 06:24:02;;;;;;;38.50;24.52;;;12.60;99.90;;;;;;5074857;28;20203;-77
2020/12/13 06:26:29;;;;;;;42.45;25.42;;;12.70;99.90;;;;;;5074772;28;20217;-77
2020/12/13 06:28:56;;;;;;;40.58;23.50;;;12.70;99.90;;;;;;5074755;28;20214;-77
2020/12/13 06:31:23;;;;;;;38.95;24.05;;;12.70;99.90;;;;;;5074469;28;20204;-77
2020/12/13 06:33:49;;;;;;;42.53;24.70;;;12.70;99.90;;;;;;5074527;28;20190;-77
2020/12/13 06:36:15;;;;;;;40.10;23.98;;;12.70;99.90;;;;;;5074464;28;20202;-77
2020/12/13 06:38:43;;;;;;;35.10;23.23;;;12.70;99.90;;;;;;5074528;28;20198;-78
2020/12/13 06:41:10;;;;;;;40.05;23.73;;;12.70;99.90;;;;;;5074593;28;20206;-77
2020/12/13 06:43:41;;;;;;;37.47;24.02;;;12.80;99.90;;;;;;5074316;28;20293;-77
2020/12/13 06:46:16;;;;;;;37.83;23.73;;;12.80;99.90;;;;;;5074344;28;20190;-77
2020/12/13 06:48:43;;;;;;;44.25;24.52;;;12.80;99.90;;;;;;5074185;28;20198;-78
2020/12/13 06:51:10;;;;;;;38.28;24.45;;;12.70;99.90;;;;;;5074015;28;20676;-77
2020/12/13 06:53:37;;;;;;;36.60;22.25;;;12.70;99.90;;;;;;5073979;28;20230;-77
2020/12/13 06:56:11;;;;;;;39.13;24.38;;;12.70;99.90;;;;;;5074092;28;20279;-77
2020/12/13 06:58:46;;;;;;;42.70;26.08;;;12.70;99.90;;;;;;5073992;28;20253;-77
2020/12/13 07:01:15;;;;;;;36.90;24.20;;;12.70;99.90;;;;;;5074157;28;20226;-77
2020/12/13 07:03:42;;;;;;;42.33;24.92;;;12.60;99.90;;;;;;5073187;28;20206;-77
2020/12/13 07:06:09;;;;;;;38.95;24.98;;;12.60;99.90;;;;;;5074143;28;20208;-77
2020/12/13 07:08:36;;;;;;;38.60;24.15;;;12.60;99.90;;;;;;5073846;28;20201;-77
2020/12/13 07:11:03;;;;;;;42.67;26.27;;;12.70;99.90;;;;;;5073620;28;20285;-78
2020/12/13 07:13:32;;;;;;;36.83;24.05;;;12.60;99.90;;;;;;5073722;28;20579;-77
2020/12/13 07:16:03;;;;;;;40.70;25.10;;;12.60;99.90;;;;;;5073841;28;20281;-77
2020/12/13 07:18:32;;;;;;;41.78;24.83;;;12.60;99.90;;;;;;5073720;28;20209;-77
2020/12/13 07:20:58;;;;;;;42.78;24.15;;;12.50;99.90;;;;;;5073856;28;20206;-77
2020/12/13 07:23:25;;;;;;;38.55;24.33;;;12.60;99.90;;;;;;5073779;28;20190;-77
2020/12/13 07:25:51;;;;;;;39.47;25.08;;;12.50;99.90;;;;;;5073481;28;20201;-77
2020/12/13 07:28:18;;;;;;;38.78;24.55;;;12.50;99.90;;;;;;5073478;28;20218;-77
2020/12/13 07:30:47;;;;;;;39.72;25.60;;;12.40;99.90;;;;;;5073526;28;20676;-77
2020/12/13 07:33:13;;;;;;;40.03;26.65;;;12.50;99.90;;;;;;5073522;28;20226;-77
2020/12/13 07:35:41;;;;;;;45.30;26.40;;;12.50;99.90;;;;;;5073715;28;20201;-77
2020/12/13 07:38:10;;;;;;;41.67;24.40;;;12.50;99.90;;;;;;5073521;28;20194;-77
2020/12/13 07:40:36;;;;;;;38.83;24.23;;;12.60;99.90;;;;;;5073424;28;20201;-77
2020/12/13 07:43:04;;;;;;;36.80;24.00;;;12.60;99.90;;;;;;5073397;28;20199;-77
2020/12/13 07:45:31;;;;;;;34.08;22.02;;;12.50;99.90;;;;;;5073259;28;20194;-77
2020/12/13 07:48:01;;;;;;;37.47;23.90;;;12.50;99.90;;;;;;5073359;28;20194;-77
2020/12/13 07:50:34;;;;;;;46.95;25.27;;;12.60;99.90;;;;;;5073386;28;20194;-77
2020/12/13 07:53:00;;;;;;;33.65;22.02;;;12.50;99.90;;;;;;5073319;28;20586;-77
2020/12/13 07:55:27;;;;;;;38.35;24.35;;;12.50;99.90;;;;;;5072989;28;20226;-77
2020/12/13 07:57:53;;;;;;;31.63;21.85;;;12.50;99.90;;;;;;5073103;28;20217;-77
2020/12/13 08:00:20;;;;;;;35.83;23.25;;;12.50;99.90;;;;;;5073236;28;20601;-77
2020/12/13 08:02:46;;;;;;;30.63;20.38;;;12.50;99.90;;;;;;5073091;28;20198;-76
2020/12/13 08:05:18;;;;;;;31.67;21.17;;;12.40;99.90;;;;;;5073168;28;20202;-78
2020/12/13 08:07:44;;;;;;;30.10;21.63;;;12.40;99.90;;;;;;5073150;28;20245;-78
2020/12/13 08:10:11;;;;;;;33.50;21.23;;;12.40;99.90;;;;;;5072972;28;20190;-78
2020/12/13 08:12:39;;;;;;;36.05;20.58;;;12.40;99.90;;;;;;5073134;28;20696;-76
2020/12/13 08:15:05;;;;;;;30.95;21.58;;;12.40;99.90;;;;;;5074169;28;20202;-78
2020/12/13 08:17:32;;;;;;;29.92;20.90;;;12.30;99.90;;;;;;5077142;28;20251;-77
2020/12/13 08:20:03;;;;;;;27.55;20.60;;;12.40;99.90;;;;;;5077227;28;20194;-77
2020/12/13 08:22:34;;;;;;;30.42;20.05;;;12.40;99.90;;;;;;5077012;28;20206;-77
2020/12/13 08:25:03;;;;;;;37.95;21.35;;;12.40;99.90;;;;;;5077111;28;20255;-78
2020/12/13 08:27:32;;;;;;;30.52;20.02;;;12.50;99.90;;;;;;5076886;28;20218;-77
2020/12/13 08:29:59;;;;;;;29.65;20.98;;;12.40;99.90;;;;;;5076975;28;20224;-77
2020/12/13 08:32:31;;;;;;;34.25;21.40;;;12.40;99.90;;;;;;5076732;28;20260;-77
2020/12/13 08:35:09;;;;;;;31.58;20.48;;;12.40;99.90;;;;;;5076868;28;20194;-77
2020/12/13 08:37:36;;;;;;;25.30;19.42;;;12.40;99.90;;;;;;5076817;28;20198;-77
2020/12/13 08:40:07;;;;;;;30.70;21.02;;;12.40;99.90;;;;;;5076783;28;20194;-77
2020/12/13 08:42:33;;;;;;;31.95;21.10;;;12.40;99.90;;;;;;5076384;28;20562;-78
2020/12/13 08:45:00;;;;;;;29.73;20.65;;;12.40;99.90;;;;;;5076743;28;20202;-77
2020/12/13 08:47:31;;;;;;;31.38;20.83;;;12.40;99.90;;;;;;5076452;28;20281;-77
2020/12/13 08:49:57;;;;;;;29.92;20.00;;;12.40;99.90;;;;;;5076467;28;20247;-77
2020/12/13 08:52:25;;;;;;;32.95;20.65;;;12.40;99.90;;;;;;5076363;28;20226;-77
2020/12/13 08:54:54;;;;;;;28.83;20.13;;;12.40;99.90;;;;;;5076173;28;20232;-78
2020/12/13 08:57:28;;;;;;;28.13;20.67;;;12.30;99.90;;;;;;5076200;28;20214;-77
2020/12/13 08:59:59;;;;;;;27.90;19.85;;;12.40;99.90;;;;;;5076293;28;20201;-77
2020/12/13 09:02:25;;;;;;;32.25;22.17;;;12.30;99.90;;;;;;5076405;28;20194;-77
2020/12/13 09:04:55;;;;;;;29.90;21.38;;;12.40;99.90;;;;;;5077217;28;20201;-78
2020/12/13 09:07:22;;;;;;;31.10;20.15;;;12.50;99.90;;;;;;5086637;28;20190;-78
2020/12/13 09:09:48;;;;;;;26.60;20.05;;;12.50;99.90;;;;;;5087568;28;20190;-77
2020/12/13 09:12:19;;;;;;;33.15;20.58;;;12.50;99.90;;;;;;5096067;28;20213;-77
2020/12/13 09:14:45;;;;;;;31.58;21.38;;;12.50;99.90;;;;;;5096234;28;20280;-77
2020/12/13 09:17:12;;;;;;;28.95;19.75;;;12.50;99.90;;;;;;5096019;28;20660;-77
2020/12/13 09:19:49;;;;;;;27.20;19.90;;;12.50;99.90;;;;;;5095897;28;20190;-77
2020/12/13 09:22:20;;;;;;;28.17;20.13;;;12.50;99.90;;;;;;5096214;28;20201;-77
2020/12/13 09:24:46;;;;;;;21.63;17.40;;;12.60;99.90;;;;;;5086945;28;21651;-77
2020/12/13 09:27:18;;;;;;;24.70;18.08;;;12.50;99.90;;;;;;5095007;28;20209;-77
2020/12/13 09:29:47;;;;;;;24.00;18.65;;;12.40;99.90;;;;;;5096152;28;20236;-77
2020/12/13 09:32:15;;;;;;;26.15;18.35;;;12.40;99.90;;;;;;5094918;28;20209;-77
2020/12/13 09:34:42;;;;;;;26.20;16.60;;;12.20;99.90;;;;;;5084014;28;20191;-77
2020/12/13 09:37:09;;;;;;;26.65;17.58;;;12.20;99.90;;;;;;5082284;28;20182;-77
2020/12/13 09:39:35;;;;;;;24.83;15.82;;;12.30;99.90;;;;;;5091714;28;20196;-76
2020/12/13 09:42:02;;;;;;;24.02;16.38;;;12.20;99.90;;;;;;5094831;28;20185;-77
2020/12/13 09:44:28;;;;;;;28.77;17.05;;;12.30;99.90;;;;;;5093869;28;20194;-77
2020/12/13 09:46:57;;;;;;;21.30;15.93;;;12.30;99.90;;;;;;5076607;28;20197;-77
2020/12/13 09:49:24;;;;;;;26.65;16.90;;;12.30;99.90;;;;;;5075422;28;20240;-77
2020/12/13 09:51:56;;;;;;;23.77;16.23;;;12.30;99.90;;;;;;5075270;28;20202;-77
2020/12/13 09:54:22;;;;;;;22.17;16.55;;;12.30;99.90;;;;;;5077725;28;20221;-77
2020/12/13 09:56:48;;;;;;;22.85;16.42;;;12.40;99.90;;;;;;5091961;28;20190;-77
2020/12/13 09:59:15;;;;;;;23.73;18.58;;;12.40;99.90;;;;;;5075313;28;20195;-78
2020/12/13 10:01:41;;;;;;;18.33;15.15;;;12.40;99.90;;;;;;5075213;28;20229;-77
2020/12/13 10:04:08;;;;;;;22.95;16.42;;;12.40;99.90;;;;;;5074966;28;20202;-77
2020/12/13 10:09:24;;;;;;;21.85;16.25;;;12.30;99.90;;;;;;5094574;28;20194;-77
2020/12/13 10:11:51;;;;;;;21.08;16.95;;;12.30;99.90;;;;;;5074948;28;20190;-77
2020/12/13 10:14:17;;;;;;;23.27;17.30;;;12.40;99.90;;;;;;5075002;28;20201;-77
2020/12/13 10:16:44;;;;;;;21.58;17.92;;;12.40;99.90;;;;;;5074751;28;20201;-77
2020/12/13 10:19:11;;;;;;;23.45;18.33;;;12.50;99.90;;;;;;5080285;28;20205;-78
2020/12/13 10:21:38;;;;;;;24.48;18.40;;;12.40;99.90;;;;;;5084308;28;20196;-77
2020/12/13 10:24:05;;;;;;;29.00;19.50;;;12.50;99.90;;;;;;5083533;28;20676;-77
2020/12/13 10:26:36;;;;;;;24.40;19.13;;;12.50;99.90;;;;;;5083501;28;20197;-77
2020/12/13 10:29:03;;;;;;;28.55;16.63;;;12.50;99.90;;;;;;5082760;28;20186;-77
2020/12/13 10:31:30;;;;;;;23.60;16.00;;;12.40;99.90;;;;;;5082043;28;20197;-77
2020/12/13 10:33:58;;;;;;;25.77;15.95;;;12.40;99.90;;;;;;5081902;28;20214;-77
2020/12/13 10:36:25;;;;;;;21.65;15.77;;;12.50;99.90;;;;;;5084662;28;20183;-78
2020/12/13 10:38:52;;;;;;;26.58;16.02;;;12.50;99.90;;;;;;5081868;28;20201;-77
2020/12/13 10:41:19;;;;;;;23.15;17.00;;;12.50;99.90;;;;;;5083936;28;20213;-77
2020/12/13 10:43:45;;;;;;;21.92;15.88;;;12.50;99.90;;;;;;5083059;28;20247;-76
2020/12/13 10:46:12;;;;;;;18.67;15.73;;;12.50;99.90;;;;;;5081716;28;20197;-77
2020/12/13 10:48:38;;;;;;;25.02;17.80;;;12.60;99.90;;;;;;5083742;28;20200;-77
2020/12/13 10:51:04;;;;;;;23.92;16.25;;;12.50;99.90;;;;;;5082831;28;20190;-77
2020/12/13 10:53:31;;;;;;;21.52;15.65;;;12.50;99.90;;;;;;5081361;28;20256;-77
2020/12/13 10:55:58;;;;;;;15.68;12.63;;;12.60;99.90;;;;;;5081813;28;20190;-77
2020/12/13 10:58:24;;;;;;;19.33;13.57;;;12.50;99.90;;;;;;5082505;28;20213;-77
2020/12/13 11:00:51;;;;;;;17.35;12.38;;;12.50;99.90;;;;;;5083561;28;20555;-77
2020/12/13 11:03:17;;;;;;;19.90;11.77;;;12.60;99.90;;;;;;5081611;28;20198;-77
2020/12/13 11:05:44;;;;;;;12.25;10.82;;;12.70;99.90;;;;;;5082564;28;20571;-77
2020/12/13 11:08:11;;;;;;;15.45;11.52;;;12.70;99.90;;;;;;5083331;28;20194;-77
2020/12/13 11:10:38;;;;;;;12.82;11.27;;;12.70;99.90;;;;;;5081540;28;20277;-77
2020/12/13 11:13:05;;;;;;;15.88;11.77;;;12.70;99.90;;;;;;5082300;28;20684;-77
2020/12/13 11:15:31;;;;;;;16.73;12.02;;;12.80;99.90;;;;;;5083276;28;20556;-77
2020/12/13 11:17:58;;;;;;;18.35;12.52;;;12.80;99.90;;;;;;5072303;28;20191;-77
2020/12/13 11:20:24;;;;;;;15.57;12.43;;;12.80;99.90;;;;;;5072063;28;20183;-77
2020/12/13 11:22:50;;;;;;;18.33;13.05;;;12.90;99.90;;;;;;5072232;28;20198;-77
2020/12/13 11:25:16;;;;;;;15.02;11.30;;;13.00;99.90;;;;;;5071977;28;20533;-78
2020/12/13 11:27:44;;;;;;;13.30;10.70;;;13.00;99.90;;;;;;5071890;28;20246;-77
2020/12/13 11:30:10;;;;;;;14.50;11.00;;;13.00;99.90;;;;;;5072017;28;20558;-77
2020/12/13 11:32:37;;;;;;;13.93;10.30;;;13.00;99.90;;;;;;5072788;28;20338;-77
2020/12/13 11:35:04;;;;;;;13.20;9.15;;;13.00;99.90;;;;;;5073376;28;20198;-77
2020/12/13 11:37:30;;;;;;;14.98;10.75;;;13.00;99.90;;;;;;5073254;28;20203;-77
2020/12/13 11:39:57;;;;;;;14.45;10.20;;;12.90;99.90;;;;;;5072634;28;20198;-77
2020/12/13 11:42:23;;;;;;;15.48;9.20;;;12.90;99.90;;;;;;5074745;28;20196;-78
2020/12/13 11:44:50;;;;;;;14.50;9.45;;;12.90;99.90;;;;;;5082180;28;20205;-77
2020/12/13 11:47:17;;;;;;;14.23;9.60;;;12.90;99.90;;;;;;5080710;28;20190;-77
2020/12/13 11:49:43;;;;;;;11.98;8.82;;;12.90;99.90;;;;;;5092738;28;20201;-77
2020/12/13 11:52:09;;;;;;;12.48;9.25;;;13.00;99.90;;;;;;5093585;28;20201;-77
2020/12/13 11:54:35;;;;;;;13.90;9.50;;;13.00;99.90;;;;;;5092879;28;20222;-77
2020/12/13 11:57:02;;;;;;;12.90;8.45;;;12.90;99.90;;;;;;5093328;28;20221;-77
2020/12/13 11:59:28;;;;;;;8.48;6.82;;;12.90;99.90;;;;;;5093433;28;20243;-78
2020/12/13 12:01:56;;;;;;;9.25;8.23;;;12.90;99.90;;;;;;5093267;28;20194;-77
2020/12/13 12:04:22;;;;;;;14.68;9.13;;;12.90;99.90;;;;;;5093248;28;20548;-77
2020/12/13 12:06:49;;;;;;;7.38;6.28;;;12.80;99.90;;;;;;5093339;28;20201;-77
2020/12/13 12:09:16;;;;;;;10.63;7.15;;;12.80;99.90;;;;;;5093346;28;20193;-78
2020/12/13 12:11:42;;;;;;;7.85;6.13;;;12.70;99.90;;;;;;5092938;28;20201;-78
2020/12/13 12:14:10;;;;;;;14.95;6.88;;;12.70;99.90;;;;;;5092847;28;20574;-77
2020/12/13 12:16:38;;;;;;;8.70;5.70;;;12.80;99.90;;;;;;5093479;28;20284;-77
2020/12/13 12:19:05;;;;;;;9.75;5.68;;;12.80;99.90;;;;;;5093388;28;20707;-77
2020/12/13 12:21:33;;;;;;;8.20;5.85;;;12.80;99.90;;;;;;5093125;28;20549;-77
2020/12/13 12:24:00;;;;;;;7.80;6.00;;;12.90;99.90;;;;;;5093131;28;20194;-77
2020/12/13 12:26:30;;;;;;;12.30;6.45;;;12.90;99.90;;;;;;5093289;28;20197;-77
2020/12/13 12:28:57;;;;;;;10.70;6.32;;;12.90;99.90;;;;;;5093357;28;20229;-77
2020/12/13 12:31:23;;;;;;;6.75;4.70;;;12.90;99.90;;;;;;5093045;28;20598;-77
2020/12/13 12:33:49;;;;;;;10.15;6.03;;;13.00;99.90;;;;;;5092598;28;20225;-77
2020/12/13 12:36:19;;;;;;;6.00;4.70;;;13.00;99.90;;;;;;5093200;28;20261;-78
2020/12/13 12:38:46;;;;;;;10.20;5.97;;;13.10;99.90;;;;;;5093006;28;20205;-77